sensor_id;sensor_type;location;lat;lon;timestamp;temperature;humidity
25877;DHT22;13692;47.480;19.216;2023-09-12T00:00:29;18.30;99.90
25877;DHT22;13692;47.480;19.216;2023-09-12T00:02:56;18.30;99.90
25877;DHT22;13692;47.480;19.216;2023-09-12T00:05:23;18.20;99.90
25877;DHT22;13692;47.480;19.216;2023-09-12T00:07:52;18.20;99.90
25877;DHT22;13692;47.480;19.216;2023-09-12T00:10:20;18.20;99.90
25877;DHT22;13692;47.480;19.216;2023-09-12T00:12:47;18.10;99.90
25877;DHT22;13692;47.480;19.216;2023-09-12T00:15:14;18.00;99.90
25877;DHT22;13692;47.480;19.216;2023-09-12T00:17:41;18.00;99.90
25877;DHT22;13692;47.480;19.216;2023-09-12T00:20:08;18.00;99.90
25877;DHT22;13692;47.480;19.216;2023-09-12T00:22:35;18.00;99.90
25877;DHT22;13692;47.480;19.216;2023-09-12T00:25:02;17.90;99.90
25877;DHT22;13692;47.480;19.216;2023-09-12T00:27:30;18.00;99.90
25877;DHT22;13692;47.480;19.216;2023-09-12T00:29:57;18.00;99.90
25877;DHT22;13692;47.480;19.216;2023-09-12T00:32:24;18.00;99.90
25877;DHT22;13692;47.480;19.216;2023-09-12T00:34:51;17.90;99.90
25877;DHT22;13692;47.480;19.216;2023-09-12T00:37:17;17.90;99.90
25877;DHT22;13692;47.480;19.216;2023-09-12T00:39:44;17.90;99.90
25877;DHT22;13692;47.480;19.216;2023-09-12T00:42:11;17.90;99.90
25877;DHT22;13692;47.480;19.216;2023-09-12T00:44:38;17.90;99.90
25877;DHT22;13692;47.480;19.216;2023-09-12T00:47:05;17.90;99.90
25877;DHT22;13692;47.480;19.216;2023-09-12T00:49:33;17.90;99.90
25877;DHT22;13692;47.480;19.216;2023-09-12T00:52:01;17.80;99.90
25877;DHT22;13692;47.480;19.216;2023-09-12T00:54:28;17.80;99.90
25877;DHT22;13692;47.480;19.216;2023-09-12T00:56:55;17.80;99.90
25877;DHT22;13692;47.480;19.216;2023-09-12T00:59:24;17.80;99.90
25877;DHT22;13692;47.480;19.216;2023-09-12T01:01:51;17.70;99.90
25877;DHT22;13692;47.480;19.216;2023-09-12T01:04:19;17.60;99.90
25877;DHT22;13692;47.480;19.216;2023-09-12T01:07:00;17.60;99.90
25877;DHT22;13692;47.480;19.216;2023-09-12T01:09:28;17.60;99.90
25877;DHT22;13692;47.480;19.216;2023-09-12T01:11:56;17.60;99.90
25877;DHT22;13692;47.480;19.216;2023-09-12T01:14:23;17.50;99.90
25877;DHT22;13692;47.480;19.216;2023-09-12T01:16:50;17.50;99.90
25877;DHT22;13692;47.480;19.216;2023-09-12T01:19:18;17.50;99.90
25877;DHT22;13692;47.480;19.216;2023-09-12T01:29:51;17.50;99.90
25877;DHT22;13692;47.480;19.216;2023-09-12T01:32:20;17.50;99.90
25877;DHT22;13692;47.480;19.216;2023-09-12T01:34:47;17.50;99.90
25877;DHT22;13692;47.480;19.216;2023-09-12T01:37:15;17.40;99.90
25877;DHT22;13692;47.480;19.216;2023-09-12T01:39:42;17.40;99.90
25877;DHT22;13692;47.480;19.216;2023-09-12T01:42:13;17.30;99.90
25877;DHT22;13692;47.480;19.216;2023-09-12T01:44:43;17.30;99.90
25877;DHT22;13692;47.480;19.216;2023-09-12T01:47:11;17.30;99.90
25877;DHT22;13692;47.480;19.216;2023-09-12T01:49:45;17.30;99.90
25877;DHT22;13692;47.480;19.216;2023-09-12T01:52:14;17.30;99.90
25877;DHT22;13692;47.480;19.216;2023-09-12T01:54:42;17.30;99.90
25877;DHT22;13692;47.480;19.216;2023-09-12T01:57:37;17.30;99.90
25877;DHT22;13692;47.480;19.216;2023-09-12T02:00:04;17.30;99.90
25877;DHT22;13692;47.480;19.216;2023-09-12T02:02:32;17.30;99.90
25877;DHT22;13692;47.480;19.216;2023-09-12T02:05:14;17.10;99.90
25877;DHT22;13692;47.480;19.216;2023-09-12T02:07:45;17.20;99.90
25877;DHT22;13692;47.480;19.216;2023-09-12T02:10:12;17.10;99.90
25877;DHT22;13692;47.480;19.216;2023-09-12T02:12:40;17.10;99.90
25877;DHT22;13692;47.480;19.216;2023-09-12T02:15:08;17.10;99.90
25877;DHT22;13692;47.480;19.216;2023-09-12T02:17:35;17.00;99.90
25877;DHT22;13692;47.480;19.216;2023-09-12T02:20:02;17.00;99.90
25877;DHT22;13692;47.480;19.216;2023-09-12T02:22:32;17.10;99.90
25877;DHT22;13692;47.480;19.216;2023-09-12T02:24:59;17.10;99.90
25877;DHT22;13692;47.480;19.216;2023-09-12T02:27:26;17.00;99.90
25877;DHT22;13692;47.480;19.216;2023-09-12T02:29:53;17.00;99.90
25877;DHT22;13692;47.480;19.216;2023-09-12T02:32:20;16.90;99.90
25877;DHT22;13692;47.480;19.216;2023-09-12T02:34:47;16.90;99.90
25877;DHT22;13692;47.480;19.216;2023-09-12T02:37:14;16.90;99.90
25877;DHT22;13692;47.480;19.216;2023-09-12T02:39:42;16.90;99.90
25877;DHT22;13692;47.480;19.216;2023-09-12T02:42:09;16.90;99.90
25877;DHT22;13692;47.480;19.216;2023-09-12T02:44:36;16.90;99.90
25877;DHT22;13692;47.480;19.216;2023-09-12T02:47:04;16.90;99.90
25877;DHT22;13692;47.480;19.216;2023-09-12T02:49:32;16.90;99.90
25877;DHT22;13692;47.480;19.216;2023-09-12T02:51:59;16.80;99.90
25877;DHT22;13692;47.480;19.216;2023-09-12T02:54:26;16.80;99.90
25877;DHT22;13692;47.480;19.216;2023-09-12T02:56:53;16.70;99.90
25877;DHT22;13692;47.480;19.216;2023-09-12T02:59:20;16.70;99.90
25877;DHT22;13692;47.480;19.216;2023-09-12T03:01:47;16.70;99.90
25877;DHT22;13692;47.480;19.216;2023-09-12T03:04:14;16.70;99.90
25877;DHT22;13692;47.480;19.216;2023-09-12T03:06:41;16.70;99.90
25877;DHT22;13692;47.480;19.216;2023-09-12T03:09:08;16.70;99.90
25877;DHT22;13692;47.480;19.216;2023-09-12T03:11:35;16.60;99.90
25877;DHT22;13692;47.480;19.216;2023-09-12T03:14:02;16.60;99.90
25877;DHT22;13692;47.480;19.216;2023-09-12T03:16:29;16.60;99.90
25877;DHT22;13692;47.480;19.216;2023-09-12T03:18:56;16.60;99.90
25877;DHT22;13692;47.480;19.216;2023-09-12T03:21:23;16.70;99.90
25877;DHT22;13692;47.480;19.216;2023-09-12T03:23:50;16.60;99.90
25877;DHT22;13692;47.480;19.216;2023-09-12T03:26:17;16.60;99.90
25877;DHT22;13692;47.480;19.216;2023-09-12T03:28:44;16.50;99.90
25877;DHT22;13692;47.480;19.216;2023-09-12T03:31:12;16.50;99.90
25877;DHT22;13692;47.480;19.216;2023-09-12T03:33:41;16.50;99.90
25877;DHT22;13692;47.480;19.216;2023-09-12T03:36:09;16.50;99.90
25877;DHT22;13692;47.480;19.216;2023-09-12T03:38:36;16.50;99.90
25877;DHT22;13692;47.480;19.216;2023-09-12T03:41:03;16.50;99.90
25877;DHT22;13692;47.480;19.216;2023-09-12T03:43:30;16.40;99.90
25877;DHT22;13692;47.480;19.216;2023-09-12T03:45:57;16.40;99.90
25877;DHT22;13692;47.480;19.216;2023-09-12T03:48:24;16.40;99.90
25877;DHT22;13692;47.480;19.216;2023-09-12T03:50:51;16.30;99.90
25877;DHT22;13692;47.480;19.216;2023-09-12T03:53:18;16.40;99.90
25877;DHT22;13692;47.480;19.216;2023-09-12T03:55:45;16.30;99.90
25877;DHT22;13692;47.480;19.216;2023-09-12T03:58:12;16.40;99.90
25877;DHT22;13692;47.480;19.216;2023-09-12T04:00:39;16.40;99.90
25877;DHT22;13692;47.480;19.216;2023-09-12T04:03:06;16.40;99.90
25877;DHT22;13692;47.480;19.216;2023-09-12T04:05:33;16.40;99.90
25877;DHT22;13692;47.480;19.216;2023-09-12T04:08:01;16.30;99.90
25877;DHT22;13692;47.480;19.216;2023-09-12T04:10:28;16.30;99.90
25877;DHT22;13692;47.480;19.216;2023-09-12T04:12:55;16.30;99.90
25877;DHT22;13692;47.480;19.216;2023-09-12T04:15:22;16.30;99.90
25877;DHT22;13692;47.480;19.216;2023-09-12T04:17:49;16.40;99.90
25877;DHT22;13692;47.480;19.216;2023-09-12T04:20:16;16.40;99.90
25877;DHT22;13692;47.480;19.216;2023-09-12T04:22:43;16.30;99.90
25877;DHT22;13692;47.480;19.216;2023-09-12T04:25:10;16.40;99.90
25877;DHT22;13692;47.480;19.216;2023-09-12T04:27:37;16.30;99.90
25877;DHT22;13692;47.480;19.216;2023-09-12T04:30:05;16.30;99.90
25877;DHT22;13692;47.480;19.216;2023-09-12T04:32:32;16.40;99.90
25877;DHT22;13692;47.480;19.216;2023-09-12T04:34:59;16.40;99.90
25877;DHT22;13692;47.480;19.216;2023-09-12T04:37:26;16.50;99.90
25877;DHT22;13692;47.480;19.216;2023-09-12T04:39:53;16.50;99.90
25877;DHT22;13692;47.480;19.216;2023-09-12T04:42:20;16.60;99.90
25877;DHT22;13692;47.480;19.216;2023-09-12T04:44:48;16.60;99.90
25877;DHT22;13692;47.480;19.216;2023-09-12T04:47:15;16.70;99.90
25877;DHT22;13692;47.480;19.216;2023-09-12T04:49:43;16.80;99.90
25877;DHT22;13692;47.480;19.216;2023-09-12T04:52:10;16.90;99.90
25877;DHT22;13692;47.480;19.216;2023-09-12T04:54:37;16.90;99.90
25877;DHT22;13692;47.480;19.216;2023-09-12T04:57:04;17.00;99.90
25877;DHT22;13692;47.480;19.216;2023-09-12T04:59:31;17.10;99.90
25877;DHT22;13692;47.480;19.216;2023-09-12T05:01:58;17.20;99.90
25877;DHT22;13692;47.480;19.216;2023-09-12T05:04:25;17.30;99.90
25877;DHT22;13692;47.480;19.216;2023-09-12T05:06:53;17.40;99.90
25877;DHT22;13692;47.480;19.216;2023-09-12T05:09:20;17.50;99.90
25877;DHT22;13692;47.480;19.216;2023-09-12T05:11:47;17.80;99.90
25877;DHT22;13692;47.480;19.216;2023-09-12T05:14:14;17.90;99.90
25877;DHT22;13692;47.480;19.216;2023-09-12T05:16:41;18.10;99.90
25877;DHT22;13692;47.480;19.216;2023-09-12T05:19:08;18.40;99.90
25877;DHT22;13692;47.480;19.216;2023-09-12T05:21:35;18.70;99.90
25877;DHT22;13692;47.480;19.216;2023-09-12T05:24:02;19.00;99.90
25877;DHT22;13692;47.480;19.216;2023-09-12T05:26:29;19.30;99.90
25877;DHT22;13692;47.480;19.216;2023-09-12T05:28:56;19.60;99.90
25877;DHT22;13692;47.480;19.216;2023-09-12T05:31:23;19.90;99.90
25877;DHT22;13692;47.480;19.216;2023-09-12T05:33:50;20.20;99.90
25877;DHT22;13692;47.480;19.216;2023-09-12T05:36:17;20.50;99.90
25877;DHT22;13692;47.480;19.216;2023-09-12T05:38:44;20.80;99.90
25877;DHT22;13692;47.480;19.216;2023-09-12T05:41:11;21.10;99.90
25877;DHT22;13692;47.480;19.216;2023-09-12T05:43:38;21.40;99.90
25877;DHT22;13692;47.480;19.216;2023-09-12T05:46:05;21.70;99.90
25877;DHT22;13692;47.480;19.216;2023-09-12T05:48:32;22.00;99.90
25877;DHT22;13692;47.480;19.216;2023-09-12T05:50:59;22.20;99.90
25877;DHT22;13692;47.480;19.216;2023-09-12T05:53:26;22.40;99.90
25877;DHT22;13692;47.480;19.216;2023-09-12T05:55:53;22.70;99.90
25877;DHT22;13692;47.480;19.216;2023-09-12T05:58:21;23.00;99.90
25877;DHT22;13692;47.480;19.216;2023-09-12T06:00:48;23.30;99.90
25877;DHT22;13692;47.480;19.216;2023-09-12T06:03:15;23.50;99.90
25877;DHT22;13692;47.480;19.216;2023-09-12T06:05:43;23.70;99.90
25877;DHT22;13692;47.480;19.216;2023-09-12T06:08:10;24.00;99.90
25877;DHT22;13692;47.480;19.216;2023-09-12T06:10:37;24.20;99.90
25877;DHT22;13692;47.480;19.216;2023-09-12T06:13:04;24.40;99.90
25877;DHT22;13692;47.480;19.216;2023-09-12T06:15:31;24.60;99.90
25877;DHT22;13692;47.480;19.216;2023-09-12T06:17:58;24.80;99.90
25877;DHT22;13692;47.480;19.216;2023-09-12T06:20:25;25.00;99.90
25877;DHT22;13692;47.480;19.216;2023-09-12T06:22:52;25.20;99.90
25877;DHT22;13692;47.480;19.216;2023-09-12T06:25:19;25.40;99.90
25877;DHT22;13692;47.480;19.216;2023-09-12T06:27:46;25.60;99.90
25877;DHT22;13692;47.480;19.216;2023-09-12T06:30:13;25.80;99.90
25877;DHT22;13692;47.480;19.216;2023-09-12T06:32:40;25.90;99.90
25877;DHT22;13692;47.480;19.216;2023-09-12T06:35:08;26.00;99.90
25877;DHT22;13692;47.480;19.216;2023-09-12T06:37:38;26.20;99.90
25877;DHT22;13692;47.480;19.216;2023-09-12T06:40:07;26.40;99.90
25877;DHT22;13692;47.480;19.216;2023-09-12T06:42:34;26.50;99.90
25877;DHT22;13692;47.480;19.216;2023-09-12T06:45:01;26.80;99.90
25877;DHT22;13692;47.480;19.216;2023-09-12T06:47:28;26.70;99.90
25877;DHT22;13692;47.480;19.216;2023-09-12T06:49:55;26.80;99.90
25877;DHT22;13692;47.480;19.216;2023-09-12T06:52:22;27.10;99.90
25877;DHT22;13692;47.480;19.216;2023-09-12T06:54:49;27.30;99.90
25877;DHT22;13692;47.480;19.216;2023-09-12T06:57:16;27.40;99.90
25877;DHT22;13692;47.480;19.216;2023-09-12T06:59:44;27.60;99.90
25877;DHT22;13692;47.480;19.216;2023-09-12T07:02:11;27.40;99.90
25877;DHT22;13692;47.480;19.216;2023-09-12T07:04:39;27.40;99.90
25877;DHT22;13692;47.480;19.216;2023-09-12T07:07:06;27.70;99.90
25877;DHT22;13692;47.480;19.216;2023-09-12T07:09:33;28.00;99.90
25877;DHT22;13692;47.480;19.216;2023-09-12T07:12:00;28.10;99.90
25877;DHT22;13692;47.480;19.216;2023-09-12T07:14:27;28.30;99.90
25877;DHT22;13692;47.480;19.216;2023-09-12T07:16:56;28.50;99.90
25877;DHT22;13692;47.480;19.216;2023-09-12T07:19:23;28.80;99.90
25877;DHT22;13692;47.480;19.216;2023-09-12T07:21:50;28.90;99.90
25877;DHT22;13692;47.480;19.216;2023-09-12T07:24:17;29.20;99.70
25877;DHT22;13692;47.480;19.216;2023-09-12T07:26:44;29.40;98.90
25877;DHT22;13692;47.480;19.216;2023-09-12T07:29:13;29.40;98.90
25877;DHT22;13692;47.480;19.216;2023-09-12T07:31:40;29.50;98.00
25877;DHT22;13692;47.480;19.216;2023-09-12T07:34:07;29.40;98.90
25877;DHT22;13692;47.480;19.216;2023-09-12T07:36:35;29.60;97.80
25877;DHT22;13692;47.480;19.216;2023-09-12T07:39:03;29.80;97.40
25877;DHT22;13692;47.480;19.216;2023-09-12T07:41:30;29.80;97.10
25877;DHT22;13692;47.480;19.216;2023-09-12T07:43:57;30.00;97.00
25877;DHT22;13692;47.480;19.216;2023-09-12T07:46:24;30.30;97.50
25877;DHT22;13692;47.480;19.216;2023-09-12T07:48:51;30.40;96.30
25877;DHT22;13692;47.480;19.216;2023-09-12T07:51:19;30.70;96.40
25877;DHT22;13692;47.480;19.216;2023-09-12T07:53:47;30.90;95.20
25877;DHT22;13692;47.480;19.216;2023-09-12T07:56:14;31.00;94.20
25877;DHT22;13692;47.480;19.216;2023-09-12T07:58:41;31.10;94.30
25877;DHT22;13692;47.480;19.216;2023-09-12T08:01:09;31.30;92.20
25877;DHT22;13692;47.480;19.216;2023-09-12T08:03:37;31.10;92.60
25877;DHT22;13692;47.480;19.216;2023-09-12T08:06:06;31.30;92.40
25877;DHT22;13692;47.480;19.216;2023-09-12T08:08:33;31.60;91.40
25877;DHT22;13692;47.480;19.216;2023-09-12T08:11:01;31.70;90.80
25877;DHT22;13692;47.480;19.216;2023-09-12T08:13:29;31.60;90.50
25877;DHT22;13692;47.480;19.216;2023-09-12T08:15:57;31.70;90.60
25877;DHT22;13692;47.480;19.216;2023-09-12T08:18:28;31.90;90.70
25877;DHT22;13692;47.480;19.216;2023-09-12T08:20:55;32.10;90.10
25877;DHT22;13692;47.480;19.216;2023-09-12T08:23:22;32.30;88.50
25877;DHT22;13692;47.480;19.216;2023-09-12T08:25:49;32.50;86.60
25877;DHT22;13692;47.480;19.216;2023-09-12T08:28:16;32.60;87.90
25877;DHT22;13692;47.480;19.216;2023-09-12T08:30:44;32.70;83.80
25877;DHT22;13692;47.480;19.216;2023-09-12T08:33:13;32.80;83.70
25877;DHT22;13692;47.480;19.216;2023-09-12T08:35:40;32.80;83.50
25877;DHT22;13692;47.480;19.216;2023-09-12T08:38:07;32.80;83.90
25877;DHT22;13692;47.480;19.216;2023-09-12T08:40:35;32.80;82.40
25877;DHT22;13692;47.480;19.216;2023-09-12T08:43:02;32.90;83.20
25877;DHT22;13692;47.480;19.216;2023-09-12T08:45:33;33.10;82.80
25877;DHT22;13692;47.480;19.216;2023-09-12T08:48:04;33.10;82.00
25877;DHT22;13692;47.480;19.216;2023-09-12T08:50:32;33.00;82.50
25877;DHT22;13692;47.480;19.216;2023-09-12T08:53:01;33.10;82.00
25877;DHT22;13692;47.480;19.216;2023-09-12T08:55:34;33.20;81.20
25877;DHT22;13692;47.480;19.216;2023-09-12T08:58:04;33.30;81.40
25877;DHT22;13692;47.480;19.216;2023-09-12T09:00:32;33.40;80.70
25877;DHT22;13692;47.480;19.216;2023-09-12T09:02:59;33.40;80.00
25877;DHT22;13692;47.480;19.216;2023-09-12T09:05:27;33.50;79.70
25877;DHT22;13692;47.480;19.216;2023-09-12T09:07:56;33.70;79.70
25877;DHT22;13692;47.480;19.216;2023-09-12T09:10:24;33.70;78.90
25877;DHT22;13692;47.480;19.216;2023-09-12T09:13:12;33.50;78.30
25877;DHT22;13692;47.480;19.216;2023-09-12T09:15:39;33.70;77.50
25877;DHT22;13692;47.480;19.216;2023-09-12T09:18:09;33.70;78.20
25877;DHT22;13692;47.480;19.216;2023-09-12T09:20:39;33.60;75.80
25877;DHT22;13692;47.480;19.216;2023-09-12T09:23:09;33.50;76.50
25877;DHT22;13692;47.480;19.216;2023-09-12T09:25:43;33.40;76.80
25877;DHT22;13692;47.480;19.216;2023-09-12T09:28:19;33.60;76.00
25877;DHT22;13692;47.480;19.216;2023-09-12T09:30:50;33.60;76.30
25877;DHT22;13692;47.480;19.216;2023-09-12T09:33:22;33.50;76.30
25877;DHT22;13692;47.480;19.216;2023-09-12T09:35:50;33.40;77.20
25877;DHT22;13692;47.480;19.216;2023-09-12T09:38:21;33.50;75.60
25877;DHT22;13692;47.480;19.216;2023-09-12T09:40:52;33.40;75.40
25877;DHT22;13692;47.480;19.216;2023-09-12T09:43:21;33.30;76.60
25877;DHT22;13692;47.480;19.216;2023-09-12T09:45:48;33.20;76.90
25877;DHT22;13692;47.480;19.216;2023-09-12T09:48:23;32.90;77.50
25877;DHT22;13692;47.480;19.216;2023-09-12T09:50:51;32.90;77.40
25877;DHT22;13692;47.480;19.216;2023-09-12T09:53:32;32.90;73.50
25877;DHT22;13692;47.480;19.216;2023-09-12T09:56:14;32.80;74.70
25877;DHT22;13692;47.480;19.216;2023-09-12T09:58:48;32.60;75.40
25877;DHT22;13692;47.480;19.216;2023-09-12T10:01:20;32.50;75.50
25877;DHT22;13692;47.480;19.216;2023-09-12T10:03:49;32.50;75.20
25877;DHT22;13692;47.480;19.216;2023-09-12T10:06:18;32.50;74.80
25877;DHT22;13692;47.480;19.216;2023-09-12T10:08:52;32.30;75.80
25877;DHT22;13692;47.480;19.216;2023-09-12T10:11:23;32.30;74.90
25877;DHT22;13692;47.480;19.216;2023-09-12T10:13:56;32.20;75.60
25877;DHT22;13692;47.480;19.216;2023-09-12T10:16:25;32.00;75.50
25877;DHT22;13692;47.480;19.216;2023-09-12T10:21:52;31.70;75.30
25877;DHT22;13692;47.480;19.216;2023-09-12T10:24:21;31.70;75.80
25877;DHT22;13692;47.480;19.216;2023-09-12T10:26:53;31.50;75.30
25877;DHT22;13692;47.480;19.216;2023-09-12T10:29:20;31.50;75.90
25877;DHT22;13692;47.480;19.216;2023-09-12T10:31:49;31.30;76.50
25877;DHT22;13692;47.480;19.216;2023-09-12T10:34:17;31.10;77.10
25877;DHT22;13692;47.480;19.216;2023-09-12T10:36:45;31.00;77.60
25877;DHT22;13692;47.480;19.216;2023-09-12T10:39:14;31.10;77.30
25877;DHT22;13692;47.480;19.216;2023-09-12T10:41:41;31.20;77.30
25877;DHT22;13692;47.480;19.216;2023-09-12T10:44:16;31.00;77.50
25877;DHT22;13692;47.480;19.216;2023-09-12T10:46:45;31.10;76.00
25877;DHT22;13692;47.480;19.216;2023-09-12T10:49:14;31.00;76.90
25877;DHT22;13692;47.480;19.216;2023-09-12T10:51:45;30.90;77.50
25877;DHT22;13692;47.480;19.216;2023-09-12T10:54:24;30.50;77.70
25877;DHT22;13692;47.480;19.216;2023-09-12T10:57:09;30.50;77.30
25877;DHT22;13692;47.480;19.216;2023-09-12T11:02:38;30.80;74.90
25877;DHT22;13692;47.480;19.216;2023-09-12T11:08:00;30.90;74.10
25877;DHT22;13692;47.480;19.216;2023-09-12T11:10:28;30.90;73.90
25877;DHT22;13692;47.480;19.216;2023-09-12T11:12:58;30.90;73.90
25877;DHT22;13692;47.480;19.216;2023-09-12T11:15:27;31.00;74.30
25877;DHT22;13692;47.480;19.216;2023-09-12T11:18:06;31.00;75.50
25877;DHT22;13692;47.480;19.216;2023-09-12T11:21:00;30.70;76.60
25877;DHT22;13692;47.480;19.216;2023-09-12T11:23:30;30.30;77.50
25877;DHT22;13692;47.480;19.216;2023-09-12T11:26:08;30.30;78.40
25877;DHT22;13692;47.480;19.216;2023-09-12T11:28:38;30.30;78.50
25877;DHT22;13692;47.480;19.216;2023-09-12T11:31:06;30.20;78.50
25877;DHT22;13692;47.480;19.216;2023-09-12T11:33:33;30.30;77.80
25877;DHT22;13692;47.480;19.216;2023-09-12T11:36:01;30.50;78.80
25877;DHT22;13692;47.480;19.216;2023-09-12T11:38:31;30.40;77.60
25877;DHT22;13692;47.480;19.216;2023-09-12T11:40:59;30.50;77.10
25877;DHT22;13692;47.480;19.216;2023-09-12T11:43:27;30.70;77.30
25877;DHT22;13692;47.480;19.216;2023-09-12T11:45:56;30.60;76.20
25877;DHT22;13692;47.480;19.216;2023-09-12T11:48:23;30.50;78.00
25877;DHT22;13692;47.480;19.216;2023-09-12T11:50:55;30.50;76.40
25877;DHT22;13692;47.480;19.216;2023-09-12T11:53:24;30.40;77.30
25877;DHT22;13692;47.480;19.216;2023-09-12T11:55:58;30.20;78.00
25877;DHT22;13692;47.480;19.216;2023-09-12T11:58:27;30.00;78.10
25877;DHT22;13692;47.480;19.216;2023-09-12T12:00:56;29.90;77.80
25877;DHT22;13692;47.480;19.216;2023-09-12T12:03:24;29.90;76.90
25877;DHT22;13692;47.480;19.216;2023-09-12T12:05:54;29.90;77.10
25877;DHT22;13692;47.480;19.216;2023-09-12T12:08:22;30.00;75.40
25877;DHT22;13692;47.480;19.216;2023-09-12T12:10:53;30.20;75.20
25877;DHT22;13692;47.480;19.216;2023-09-12T12:13:22;30.10;76.50
25877;DHT22;13692;47.480;19.216;2023-09-12T12:15:50;30.20;74.70
25877;DHT22;13692;47.480;19.216;2023-09-12T12:18:18;30.40;74.20
25877;DHT22;13692;47.480;19.216;2023-09-12T12:20:45;30.20;75.30
25877;DHT22;13692;47.480;19.216;2023-09-12T12:23:12;30.00;76.00
25877;DHT22;13692;47.480;19.216;2023-09-12T12:25:39;30.10;74.30
25877;DHT22;13692;47.480;19.216;2023-09-12T12:28:07;30.00;76.30
25877;DHT22;13692;47.480;19.216;2023-09-12T12:30:35;30.00;76.10
25877;DHT22;13692;47.480;19.216;2023-09-12T12:33:11;30.10;75.70
25877;DHT22;13692;47.480;19.216;2023-09-12T12:36:05;30.20;75.00
25877;DHT22;13692;47.480;19.216;2023-09-12T12:38:37;30.30;76.20
25877;DHT22;13692;47.480;19.216;2023-09-12T12:41:13;30.00;76.80
25877;DHT22;13692;47.480;19.216;2023-09-12T12:43:41;30.20;76.10
25877;DHT22;13692;47.480;19.216;2023-09-12T12:46:12;30.20;76.50
25877;DHT22;13692;47.480;19.216;2023-09-12T12:48:43;30.10;76.50
25877;DHT22;13692;47.480;19.216;2023-09-12T12:51:21;30.00;76.50
25877;DHT22;13692;47.480;19.216;2023-09-12T12:53:53;30.10;72.80
25877;DHT22;13692;47.480;19.216;2023-09-12T12:56:27;30.10;75.10
25877;DHT22;13692;47.480;19.216;2023-09-12T12:58:59;30.10;74.80
25877;DHT22;13692;47.480;19.216;2023-09-12T13:01:30;30.00;75.70
25877;DHT22;13692;47.480;19.216;2023-09-12T13:03:57;30.10;73.80
25877;DHT22;13692;47.480;19.216;2023-09-12T13:06:25;30.10;75.00
25877;DHT22;13692;47.480;19.216;2023-09-12T13:08:53;30.00;74.20
25877;DHT22;13692;47.480;19.216;2023-09-12T13:11:21;30.10;74.20
25877;DHT22;13692;47.480;19.216;2023-09-12T13:13:48;30.20;73.70
25877;DHT22;13692;47.480;19.216;2023-09-12T13:16:16;30.10;74.60
25877;DHT22;13692;47.480;19.216;2023-09-12T13:18:43;30.10;73.80
25877;DHT22;13692;47.480;19.216;2023-09-12T13:21:10;30.20;74.70
25877;DHT22;13692;47.480;19.216;2023-09-12T13:23:38;30.10;74.20
25877;DHT22;13692;47.480;19.216;2023-09-12T13:26:07;30.10;73.30
25877;DHT22;13692;47.480;19.216;2023-09-12T13:28:35;30.00;75.50
25877;DHT22;13692;47.480;19.216;2023-09-12T13:31:02;29.80;74.20
25877;DHT22;13692;47.480;19.216;2023-09-12T13:33:30;29.70;75.50
25877;DHT22;13692;47.480;19.216;2023-09-12T13:35:58;29.70;75.60
25877;DHT22;13692;47.480;19.216;2023-09-12T13:38:25;29.80;76.00
25877;DHT22;13692;47.480;19.216;2023-09-12T13:40:52;29.80;75.90
25877;DHT22;13692;47.480;19.216;2023-09-12T13:43:19;29.70;76.90
25877;DHT22;13692;47.480;19.216;2023-09-12T13:45:46;29.60;76.60
25877;DHT22;13692;47.480;19.216;2023-09-12T13:48:14;29.80;74.70
25877;DHT22;13692;47.480;19.216;2023-09-12T13:50:41;29.80;75.20
25877;DHT22;13692;47.480;19.216;2023-09-12T13:53:10;29.80;76.40
25877;DHT22;13692;47.480;19.216;2023-09-12T13:55:37;29.70;76.70
25877;DHT22;13692;47.480;19.216;2023-09-12T13:58:24;29.70;76.00
25877;DHT22;13692;47.480;19.216;2023-09-12T14:00:59;29.80;75.70
25877;DHT22;13692;47.480;19.216;2023-09-12T14:03:26;29.60;76.40
25877;DHT22;13692;47.480;19.216;2023-09-12T14:05:56;29.70;76.60
25877;DHT22;13692;47.480;19.216;2023-09-12T14:08:24;29.60;77.50
25877;DHT22;13692;47.480;19.216;2023-09-12T14:10:51;29.60;77.40
25877;DHT22;13692;47.480;19.216;2023-09-12T14:13:19;29.50;78.40
25877;DHT22;13692;47.480;19.216;2023-09-12T14:15:49;29.40;78.90
25877;DHT22;13692;47.480;19.216;2023-09-12T14:18:19;29.20;79.30
25877;DHT22;13692;47.480;19.216;2023-09-12T14:20:48;29.10;79.10
25877;DHT22;13692;47.480;19.216;2023-09-12T14:23:19;29.20;78.80
25877;DHT22;13692;47.480;19.216;2023-09-12T14:25:49;29.10;79.40
25877;DHT22;13692;47.480;19.216;2023-09-12T14:28:17;29.10;78.90
25877;DHT22;13692;47.480;19.216;2023-09-12T14:30:45;29.20;79.10
25877;DHT22;13692;47.480;19.216;2023-09-12T14:33:13;29.20;78.60
25877;DHT22;13692;47.480;19.216;2023-09-12T14:35:44;29.30;79.30
25877;DHT22;13692;47.480;19.216;2023-09-12T14:38:11;29.20;79.60
25877;DHT22;13692;47.480;19.216;2023-09-12T14:40:39;29.20;79.40
25877;DHT22;13692;47.480;19.216;2023-09-12T14:43:11;29.20;78.10
25877;DHT22;13692;47.480;19.216;2023-09-12T14:45:38;29.40;77.50
25877;DHT22;13692;47.480;19.216;2023-09-12T14:48:06;29.40;78.20
25877;DHT22;13692;47.480;19.216;2023-09-12T14:50:34;29.40;77.70
25877;DHT22;13692;47.480;19.216;2023-09-12T14:53:10;29.40;79.10
25877;DHT22;13692;47.480;19.216;2023-09-12T14:55:39;29.50;76.90
25877;DHT22;13692;47.480;19.216;2023-09-12T14:58:06;29.70;75.30
25877;DHT22;13692;47.480;19.216;2023-09-12T15:00:34;29.80;75.20
25877;DHT22;13692;47.480;19.216;2023-09-12T15:03:04;29.90;73.90
25877;DHT22;13692;47.480;19.216;2023-09-12T15:05:31;29.90;75.20
25877;DHT22;13692;47.480;19.216;2023-09-12T15:07:59;29.80;76.30
25877;DHT22;13692;47.480;19.216;2023-09-12T15:10:26;29.70;77.30
25877;DHT22;13692;47.480;19.216;2023-09-12T15:12:54;29.60;77.60
25877;DHT22;13692;47.480;19.216;2023-09-12T15:15:21;29.60;77.70
25877;DHT22;13692;47.480;19.216;2023-09-12T15:17:48;29.40;78.80
25877;DHT22;13692;47.480;19.216;2023-09-12T15:20:15;29.30;79.90
25877;DHT22;13692;47.480;19.216;2023-09-12T15:22:42;29.30;80.90
25877;DHT22;13692;47.480;19.216;2023-09-12T15:25:10;29.30;81.50
25877;DHT22;13692;47.480;19.216;2023-09-12T15:27:37;29.20;81.80
25877;DHT22;13692;47.480;19.216;2023-09-12T15:30:05;29.20;81.60
25877;DHT22;13692;47.480;19.216;2023-09-12T15:32:33;29.10;82.50
25877;DHT22;13692;47.480;19.216;2023-09-12T15:35:01;29.10;83.30
25877;DHT22;13692;47.480;19.216;2023-09-12T15:37:30;29.00;83.70
25877;DHT22;13692;47.480;19.216;2023-09-12T15:39:57;29.10;82.60